YPTN/KTR METAR and TAF weather

Enter ICAO airport designator
Station Type Date Time Source
YPTN METAR 2019/06/18 05:02 UTC NOAA

YPTN 180502Z AUTO 13016G26KT 9999 // NCD 30/06 Q1014


Station Type Date Time Source
YPTN Decoded METAR 2019/06/18 05:02 UTC NOAA

Tindal / Katherine, Australia (YPTN) 14-26S 132-16E 109M
Jun 18, 2019 - 01:02 AM EDT / 2019.06.18 0502 UTC
Wind: from the SE (130 degrees) at 18 MPH (16 KT) gusting to 30 MPH (26 KT):0
Visibility: greater than 7 mile(s):0
Temperature: 86 F (30 C)
Dew Point: 42 F (6 C)
Relative Humidity: 22%
Pressure (altimeter): 29.94 in. Hg (1014 hPa)
ob: YPTN 180502Z AUTO 13016G26KT 9999 // NCD 30/06 Q1014
cycle: 5

Station Type Date Time Source
YPTN TAF 2019/06/18 06:03 UTC NOAA

TAF YPTN 180441Z 1806/1906 13010KT CAVOK

Example: see airport list